createdAt,value
2019-02-03T00:00:53.573Z,99.99
2019-02-03T00:01:53.577Z,99.99
2019-02-03T00:02:53.508Z,99.99
2019-02-03T00:03:53.579Z,99.99
2019-02-03T00:04:53.548Z,99.99
2019-02-03T00:05:53.531Z,99.99
2019-02-03T00:07:03.001Z,99.99
2019-02-03T00:07:53.523Z,99.99
2019-02-03T00:08:53.515Z,99.99
2019-02-03T00:09:53.466Z,99.99
2019-02-03T00:10:53.567Z,99.99
2019-02-03T00:11:53.491Z,99.99
2019-02-03T00:12:53.526Z,99.99
2019-02-03T00:13:53.521Z,99.99
2019-02-03T00:14:53.539Z,99.99
2019-02-03T00:15:53.573Z,99.99
2019-02-03T00:16:53.498Z,99.99
2019-02-03T00:17:53.572Z,99.99
2019-02-03T00:18:53.573Z,99.99
2019-02-03T00:19:53.507Z,99.99
2019-02-03T00:20:53.519Z,99.99
2019-02-03T00:21:53.574Z,99.99
2019-02-03T00:22:53.587Z,99.99
2019-02-03T00:23:53.508Z,99.99
2019-02-03T00:24:53.578Z,99.99
2019-02-03T00:25:53.517Z,99.99
2019-02-03T00:26:53.465Z,99.99
2019-02-03T00:27:53.559Z,99.99
2019-02-03T00:28:53.485Z,99.99
2019-02-03T00:29:53.451Z,99.99
2019-02-03T00:30:53.437Z,99.99
2019-02-03T00:31:53.485Z,99.99
2019-02-03T00:32:53.561Z,99.99
2019-02-03T00:33:53.477Z,99.99
2019-02-03T00:34:53.455Z,99.99
2019-02-03T00:35:53.527Z,99.99
2019-02-03T00:36:53.568Z,99.99
2019-02-03T00:37:53.603Z,99.99
2019-02-03T00:38:53.659Z,99.99
2019-02-03T00:39:53.721Z,99.99
2019-02-03T00:40:53.560Z,99.99
2019-02-03T00:41:53.606Z,99.99
2019-02-03T00:42:53.603Z,99.99
2019-02-03T00:43:53.610Z,99.99
2019-02-03T00:44:53.550Z,99.99
2019-02-03T00:45:53.601Z,99.99
2019-02-03T00:46:53.606Z,99.99
2019-02-03T00:47:53.550Z,99.99
2019-02-03T00:48:53.559Z,99.99
2019-02-03T00:49:53.615Z,99.99
2019-02-03T00:50:53.552Z,99.99
2019-02-03T00:51:53.619Z,99.99
2019-02-03T00:52:53.549Z,99.99
2019-02-03T00:53:53.613Z,99.99
2019-02-03T00:54:53.559Z,99.99
2019-02-03T00:55:53.670Z,99.99
2019-02-03T00:56:53.622Z,99.99
2019-02-03T00:57:53.611Z,99.96
2019-02-03T00:58:53.568Z,99.86
2019-02-03T00:59:53.603Z,99.86
2019-02-03T01:00:53.538Z,99.75
2019-02-03T01:01:53.626Z,99.70
2019-02-03T01:02:53.644Z,99.70
2019-02-03T01:03:53.628Z,99.70
2019-02-03T01:04:53.618Z,99.70
2019-02-03T01:05:53.608Z,99.70
2019-02-03T01:06:53.543Z,99.72
2019-02-03T01:07:53.549Z,99.72
2019-02-03T01:08:53.601Z,99.67
2019-02-03T01:09:53.623Z,99.59
2019-02-03T01:10:53.552Z,99.56
2019-02-03T01:11:53.557Z,99.51
2019-02-03T01:12:53.654Z,99.51
2019-02-03T01:13:53.551Z,99.53
2019-02-03T01:14:53.550Z,99.48
2019-02-03T01:15:53.619Z,99.37
2019-02-03T01:16:53.650Z,99.29
2019-02-03T01:17:53.651Z,99.23
2019-02-03T01:18:53.571Z,99.21
2019-02-03T01:19:53.574Z,99.04
2019-02-03T01:20:53.578Z,98.96
2019-02-03T01:21:53.625Z,98.94
2019-02-03T01:22:53.639Z,98.94
2019-02-03T01:23:53.702Z,98.91
2019-02-03T01:24:53.643Z,98.91
2019-02-03T01:25:53.553Z,98.96
2019-02-03T01:26:53.623Z,98.91
2019-02-03T01:27:53.576Z,98.99
2019-02-03T01:28:53.622Z,98.94
2019-02-03T01:29:53.561Z,98.85
2019-02-03T01:30:53.631Z,98.83
2019-02-03T01:31:53.785Z,98.72
2019-02-03T01:32:53.564Z,98.64
2019-02-03T01:33:53.641Z,98.61
2019-02-03T01:34:53.564Z,98.61
2019-02-03T01:35:53.627Z,98.61
2019-02-03T01:36:53.638Z,98.66
2019-02-03T01:37:53.566Z,98.64
2019-02-03T01:38:53.564Z,98.66
2019-02-03T01:39:53.631Z,98.61
2019-02-03T01:40:53.631Z,98.55
2019-02-03T01:41:53.584Z,98.59
2019-02-03T01:42:53.643Z,98.64
2019-02-03T01:43:53.561Z,98.64
2019-02-03T01:44:53.637Z,98.69
2019-02-03T01:45:53.647Z,98.77
2019-02-03T01:46:53.655Z,98.75
2019-02-03T01:47:53.588Z,98.72
2019-02-03T01:48:53.576Z,98.75
2019-02-03T01:49:53.659Z,98.75
2019-02-03T01:50:53.575Z,98.77
2019-02-03T01:51:53.652Z,98.77
2019-02-03T01:52:53.578Z,98.80
2019-02-03T01:53:53.582Z,98.72
2019-02-03T01:54:53.701Z,98.69
2019-02-03T01:55:53.638Z,98.66
2019-02-03T01:56:53.525Z,98.64
2019-02-03T01:57:53.639Z,98.61
2019-02-03T01:58:53.554Z,98.64
2019-02-03T01:59:53.553Z,98.72
2019-02-03T02:00:53.570Z,98.80
2019-02-03T02:01:53.520Z,98.91
2019-02-03T02:02:53.652Z,98.99
2019-02-03T02:03:53.549Z,99.10
2019-02-03T02:04:53.648Z,99.21
2019-02-03T02:05:53.662Z,99.23
2019-02-03T02:06:53.608Z,99.23
2019-02-03T02:07:53.601Z,99.23
2019-02-03T02:08:53.589Z,99.15
2019-02-03T02:09:53.556Z,99.10
2019-02-03T02:10:53.670Z,99.04
2019-02-03T02:11:53.551Z,98.99
2019-02-03T02:12:53.750Z,98.94
2019-02-03T02:13:53.673Z,98.99
2019-02-03T02:14:53.594Z,99.02
2019-02-03T02:15:53.615Z,98.94
2019-02-03T02:16:53.596Z,98.91
2019-02-03T02:17:53.621Z,98.91
2019-02-03T02:18:53.669Z,98.85
2019-02-03T02:19:53.599Z,98.94
2019-02-03T02:20:53.682Z,98.91
2019-02-03T02:21:53.602Z,98.94
2019-02-03T02:22:53.617Z,98.96
2019-02-03T02:23:53.676Z,99.04
2019-02-03T02:24:53.659Z,99.10
2019-02-03T02:25:53.675Z,99.18
2019-02-03T02:26:53.680Z,99.21
2019-02-03T02:27:53.691Z,99.32
2019-02-03T02:28:53.644Z,99.40
2019-02-03T02:29:53.618Z,99.51
2019-02-03T02:30:53.693Z,99.59
2019-02-03T02:31:53.645Z,99.72
2019-02-03T02:32:53.631Z,99.86
2019-02-03T02:33:53.681Z,99.99
2019-02-03T02:34:53.626Z,99.99
2019-02-03T02:35:53.545Z,99.99
2019-02-03T02:36:53.663Z,99.99
2019-02-03T02:38:05.652Z,99.99
2019-02-03T02:38:53.573Z,99.99
2019-02-03T02:39:53.616Z,99.99
2019-02-03T02:40:53.582Z,99.99
2019-02-03T02:41:53.645Z,99.99
2019-02-03T02:42:53.743Z,99.99
2019-02-03T02:43:53.674Z,99.99
2019-02-03T02:44:53.595Z,99.99
2019-02-03T02:45:53.553Z,99.99
2019-02-03T02:46:53.532Z,99.99
2019-02-03T02:47:53.632Z,99.99
2019-02-03T02:48:53.562Z,99.99
2019-02-03T02:49:53.644Z,99.99
2019-02-03T02:50:53.543Z,99.99
2019-02-03T02:51:53.581Z,99.99
2019-02-03T02:52:53.664Z,99.99
2019-02-03T02:53:53.576Z,99.99
2019-02-03T02:54:53.536Z,99.99
2019-02-03T02:55:53.577Z,99.99
2019-02-03T02:56:53.686Z,99.99
2019-02-03T02:57:53.630Z,99.99
2019-02-03T02:58:53.627Z,99.99
2019-02-03T02:59:53.687Z,99.99
2019-02-03T03:00:53.623Z,99.99
2019-02-03T03:01:53.689Z,99.99
2019-02-03T03:02:53.691Z,99.99
2019-02-03T03:03:53.618Z,99.99
2019-02-03T03:04:53.692Z,99.99
2019-02-03T03:05:53.650Z,99.99
2019-02-03T03:06:53.708Z,99.99
2019-02-03T03:07:53.707Z,99.99
2019-02-03T03:08:53.655Z,99.99
2019-02-03T03:09:53.631Z,99.99
2019-02-03T03:10:53.657Z,99.99
2019-02-03T03:11:53.656Z,99.99
2019-02-03T03:12:53.699Z,99.99
2019-02-03T03:13:53.729Z,99.99
2019-02-03T03:14:53.666Z,99.99
2019-02-03T03:15:53.625Z,99.99
2019-02-03T03:16:53.638Z,99.99
2019-02-03T03:17:53.710Z,99.99
2019-02-03T03:18:53.762Z,99.99
2019-02-03T03:19:53.710Z,99.99
2019-02-03T03:20:53.631Z,99.99
2019-02-03T03:21:53.702Z,99.99
2019-02-03T03:22:53.631Z,99.99
2019-02-03T03:23:53.709Z,99.99
2019-02-03T03:24:53.644Z,99.99
2019-02-03T03:25:53.728Z,99.99
2019-02-03T03:26:53.682Z,99.99
2019-02-03T03:27:53.724Z,99.99
2019-02-03T03:28:53.748Z,99.99
2019-02-03T03:29:53.752Z,99.99
2019-02-03T03:30:53.697Z,99.99
2019-02-03T03:31:53.674Z,99.99
2019-02-03T03:32:53.726Z,99.99
2019-02-03T03:33:53.711Z,99.99
2019-02-03T03:34:53.670Z,99.99
2019-02-03T03:35:53.654Z,99.99
2019-02-03T03:36:53.658Z,99.99
2019-02-03T03:37:53.621Z,99.99
2019-02-03T03:38:53.672Z,99.99
2019-02-03T03:39:53.609Z,99.99
2019-02-03T03:40:53.669Z,99.99
2019-02-03T03:41:53.698Z,99.99
2019-02-03T03:42:53.702Z,99.99
2019-02-03T03:43:53.641Z,99.99
2019-02-03T03:44:53.703Z,99.99
2019-02-03T03:45:53.656Z,99.99
2019-02-03T03:46:53.720Z,99.99
2019-02-03T03:47:53.656Z,99.99
2019-02-03T03:48:53.653Z,99.99
2019-02-03T03:49:53.739Z,99.99
2019-02-03T03:50:53.659Z,99.99
2019-02-03T03:51:53.724Z,99.99
2019-02-03T03:52:53.659Z,99.99
2019-02-03T03:53:53.786Z,99.99
2019-02-03T03:54:53.734Z,99.99
2019-02-03T03:55:53.648Z,99.99
2019-02-03T03:56:53.720Z,99.99
2019-02-03T03:57:53.728Z,99.99
2019-02-03T03:58:53.611Z,99.99
2019-02-03T03:59:53.676Z,99.99
2019-02-03T04:00:53.725Z,99.99
2019-02-03T04:01:53.768Z,99.99
2019-02-03T04:02:53.650Z,99.99
2019-02-03T04:03:53.721Z,99.99
2019-02-03T04:04:53.730Z,99.99
2019-02-03T04:05:53.696Z,99.99
2019-02-03T04:06:53.706Z,99.99
2019-02-03T04:07:53.750Z,99.99
2019-02-03T04:08:53.692Z,99.99
2019-02-03T04:09:53.685Z,99.99
2019-02-03T04:10:53.648Z,99.99
2019-02-03T04:11:53.689Z,99.99
2019-02-03T04:12:53.674Z,99.99
2019-02-03T04:13:53.708Z,99.99
2019-02-03T04:14:53.766Z,99.99
2019-02-03T04:15:53.762Z,99.99
2019-02-03T04:16:53.852Z,99.99
2019-02-03T04:17:53.643Z,99.99
2019-02-03T04:18:53.698Z,99.99
2019-02-03T04:19:53.690Z,99.99
2019-02-03T04:20:53.706Z,99.99
2019-02-03T04:21:53.705Z,99.99
2019-02-03T04:22:53.686Z,99.99
2019-02-03T04:23:53.689Z,99.99
2019-02-03T04:24:53.766Z,99.99
2019-02-03T04:25:53.684Z,99.99
2019-02-03T04:26:53.753Z,99.99
2019-02-03T04:27:53.809Z,99.99
2019-02-03T04:28:53.751Z,99.99
2019-02-03T04:29:53.755Z,99.99
2019-02-03T04:30:53.752Z,99.99
2019-02-03T04:31:53.679Z,99.99
2019-02-03T04:32:53.753Z,99.99
2019-02-03T04:33:53.678Z,99.99
2019-02-03T04:34:53.758Z,99.99
2019-02-03T04:35:53.708Z,99.99
2019-02-03T04:36:53.726Z,99.99
2019-02-03T04:37:53.771Z,99.99
2019-02-03T04:38:58.088Z,99.99
2019-02-03T04:39:53.792Z,99.99
2019-02-03T04:40:53.697Z,99.99
2019-02-03T04:41:53.723Z,99.99
2019-02-03T04:42:53.698Z,99.99
2019-02-03T04:43:53.719Z,99.99
2019-02-03T04:44:53.794Z,99.99
2019-02-03T04:45:53.747Z,99.99
2019-02-03T04:46:53.714Z,99.99
2019-02-03T04:47:53.629Z,99.99
2019-02-03T04:48:53.761Z,99.99
2019-02-03T04:49:53.625Z,99.99
2019-02-03T04:50:53.746Z,99.99
2019-02-03T04:51:53.667Z,99.99
2019-02-03T04:52:53.654Z,99.99
2019-02-03T04:53:53.722Z,99.99
2019-02-03T04:54:53.718Z,99.99
2019-02-03T04:55:53.693Z,99.99
2019-02-03T04:56:53.729Z,99.99
2019-02-03T04:57:53.752Z,99.99
2019-02-03T04:58:53.644Z,99.99
2019-02-03T04:59:53.713Z,99.99
2019-02-03T05:00:53.730Z,99.99
2019-02-03T05:01:53.728Z,99.99
2019-02-03T05:02:53.756Z,99.99
2019-02-03T05:03:53.748Z,99.99
2019-02-03T05:04:53.685Z,99.99
2019-02-03T05:05:53.757Z,99.99
2019-02-03T05:06:53.741Z,99.99
2019-02-03T05:07:53.732Z,99.99
2019-02-03T05:08:53.800Z,99.99
2019-02-03T05:09:53.813Z,99.99
2019-02-03T05:10:53.736Z,99.99
2019-02-03T05:11:53.783Z,99.99
2019-02-03T05:12:53.798Z,99.99
2019-02-03T05:13:53.730Z,99.99
2019-02-03T05:14:53.719Z,99.99
2019-02-03T05:15:53.802Z,99.99
2019-02-03T05:16:53.747Z,99.99
2019-02-03T05:17:53.830Z,99.99
2019-02-03T05:18:53.811Z,99.99
2019-02-03T05:19:53.836Z,99.99
2019-02-03T05:20:53.802Z,99.99
2019-02-03T05:21:53.816Z,99.99
2019-02-03T05:22:53.740Z,99.99
2019-02-03T05:23:53.821Z,99.99
2019-02-03T05:24:53.770Z,99.99
2019-02-03T05:25:54.545Z,99.99
2019-02-03T05:26:53.675Z,99.99
2019-02-03T05:27:53.782Z,99.99
2019-02-03T05:28:53.720Z,99.99
2019-02-03T05:29:53.741Z,99.99
2019-02-03T05:30:53.795Z,99.99
2019-02-03T05:31:53.721Z,99.99
2019-02-03T05:32:53.779Z,99.99
2019-02-03T05:33:53.921Z,99.99
2019-02-03T05:34:53.784Z,99.99
2019-02-03T05:35:53.763Z,99.99
2019-02-03T05:36:53.728Z,99.99
2019-02-03T05:37:53.803Z,99.99
2019-02-03T05:38:55.318Z,99.99
2019-02-03T05:39:53.800Z,99.99
2019-02-03T05:40:53.731Z,99.99
2019-02-03T05:41:53.810Z,99.99
2019-02-03T05:42:53.729Z,99.99
2019-02-03T05:43:53.734Z,99.99
2019-02-03T05:44:53.815Z,99.99
2019-02-03T05:45:53.736Z,99.99
2019-02-03T05:46:53.807Z,99.99
2019-02-03T05:47:53.733Z,99.99
2019-02-03T05:48:53.779Z,99.99
2019-02-03T05:49:53.814Z,99.99
2019-02-03T05:50:53.748Z,99.99
2019-02-03T05:51:53.806Z,99.99
2019-02-03T05:52:53.855Z,99.99
2019-02-03T05:53:53.742Z,99.99
2019-02-03T05:54:53.752Z,99.99
2019-02-03T05:55:53.810Z,99.99
2019-02-03T05:56:53.802Z,99.99
2019-02-03T05:57:53.720Z,99.99
2019-02-03T05:58:53.777Z,99.99
2019-02-03T05:59:53.711Z,99.99
2019-02-03T06:00:53.714Z,99.99
2019-02-03T06:01:53.832Z,99.99
2019-02-03T06:02:53.855Z,99.99
2019-02-03T06:03:53.768Z,99.99
2019-02-03T06:04:53.778Z,99.99
2019-02-03T06:05:53.738Z,99.99
2019-02-03T06:06:53.817Z,99.99
2019-02-03T06:07:53.814Z,99.99
2019-02-03T06:08:53.710Z,99.99
2019-02-03T06:09:53.725Z,99.99
2019-02-03T06:10:53.721Z,99.99
2019-02-03T06:11:53.813Z,99.99
2019-02-03T06:12:53.780Z,99.99
2019-02-03T06:13:53.702Z,99.99
2019-02-03T06:14:53.699Z,99.99
2019-02-03T06:15:53.732Z,99.99
2019-02-03T06:16:53.693Z,99.99
2019-02-03T06:17:53.775Z,99.99
2019-02-03T06:18:53.808Z,99.99
2019-02-03T06:19:53.805Z,99.99
2019-02-03T06:20:53.783Z,99.99
2019-02-03T06:21:53.826Z,99.99
2019-02-03T06:22:53.684Z,99.99
2019-02-03T06:23:53.760Z,99.99
2019-02-03T06:24:53.685Z,99.99
2019-02-03T06:25:53.813Z,99.99
2019-02-03T06:26:53.849Z,99.99
2019-02-03T06:27:53.838Z,99.99
2019-02-03T06:28:53.790Z,99.99
2019-02-03T06:29:53.829Z,99.99
2019-02-03T06:30:53.855Z,99.99
2019-02-03T06:31:53.798Z,99.99
2019-02-03T06:32:53.835Z,99.99
2019-02-03T06:33:53.778Z,99.99
2019-02-03T06:34:53.795Z,99.99
2019-02-03T06:35:53.798Z,99.99
2019-02-03T06:36:53.791Z,99.99
2019-02-03T06:37:53.763Z,99.99
2019-02-03T06:38:53.846Z,99.99
2019-02-03T06:39:53.766Z,99.99
2019-02-03T06:40:53.767Z,99.99
2019-02-03T06:41:53.811Z,99.99
2019-02-03T06:42:53.720Z,99.99
2019-02-03T06:43:53.808Z,99.99
2019-02-03T06:44:53.725Z,99.99
2019-02-03T06:45:53.744Z,99.99
2019-02-03T06:46:53.824Z,99.99
2019-02-03T06:47:53.844Z,99.99
2019-02-03T06:48:53.864Z,99.99
2019-02-03T06:49:53.870Z,99.99
2019-02-03T06:50:53.846Z,99.99
2019-02-03T06:51:53.912Z,99.99
2019-02-03T06:52:53.812Z,99.99
2019-02-03T06:53:53.867Z,99.99
2019-02-03T06:54:53.797Z,99.99
2019-02-03T06:55:53.888Z,99.99
2019-02-03T06:56:53.813Z,99.99
2019-02-03T06:57:53.808Z,99.99
2019-02-03T06:58:53.809Z,99.99
2019-02-03T06:59:53.796Z,99.99
2019-02-03T07:00:53.872Z,99.99
2019-02-03T07:01:53.810Z,99.99
2019-02-03T07:02:53.870Z,99.99
2019-02-03T07:03:53.866Z,99.99
2019-02-03T07:04:53.883Z,99.99
2019-02-03T07:05:53.873Z,99.99
2019-02-03T07:06:53.871Z,99.99
2019-02-03T07:07:53.873Z,99.99
2019-02-03T07:08:53.798Z,99.99
2019-02-03T07:10:00.344Z,99.99
2019-02-03T07:10:53.874Z,99.99
2019-02-03T07:11:53.800Z,99.99
2019-02-03T07:12:53.805Z,99.99
2019-02-03T07:13:53.802Z,99.83
2019-02-03T07:14:53.885Z,99.72
2019-02-03T07:15:53.805Z,99.59
2019-02-03T07:16:53.910Z,99.51
2019-02-03T07:17:53.890Z,99.45
2019-02-03T07:18:53.930Z,99.34
2019-02-03T07:19:53.829Z,99.32
2019-02-03T07:20:53.890Z,99.23
2019-02-03T07:21:53.882Z,99.10
2019-02-03T07:22:53.828Z,98.96
2019-02-03T07:23:53.808Z,98.85
2019-02-03T07:24:53.890Z,98.85
2019-02-03T07:25:53.883Z,98.83
2019-02-03T07:26:53.874Z,98.80
2019-02-03T07:27:53.798Z,98.72
2019-02-03T07:28:53.895Z,98.64
2019-02-03T07:29:53.913Z,98.48
2019-02-03T07:30:53.801Z,98.37
2019-02-03T07:31:53.803Z,98.29
2019-02-03T07:32:53.878Z,98.12
2019-02-03T07:33:53.882Z,98.02
2019-02-03T07:34:53.887Z,97.93
2019-02-03T07:35:53.792Z,97.88
2019-02-03T07:36:53.806Z,97.88
2019-02-03T07:37:53.811Z,97.85
2019-02-03T07:38:53.881Z,97.85
2019-02-03T07:39:53.807Z,97.83
2019-02-03T07:40:53.813Z,97.80
2019-02-03T07:41:53.906Z,97.74
2019-02-03T07:42:53.820Z,97.74
2019-02-03T07:43:53.888Z,97.74
2019-02-03T07:44:53.844Z,97.77
2019-02-03T07:45:53.809Z,97.74
2019-02-03T07:46:53.889Z,97.74
2019-02-03T07:47:53.881Z,97.74
2019-02-03T07:48:53.796Z,97.74
2019-02-03T07:49:53.818Z,97.66
2019-02-03T07:50:53.881Z,97.64
2019-02-03T07:51:53.860Z,97.61
2019-02-03T07:52:53.792Z,97.61
2019-02-03T07:53:53.837Z,97.61
2019-02-03T07:54:53.888Z,97.69
2019-02-03T07:55:53.894Z,97.74
2019-02-03T07:56:53.891Z,97.77
2019-02-03T07:57:53.895Z,97.85
2019-02-03T07:58:53.901Z,97.85
2019-02-03T07:59:53.808Z,97.80
2019-02-03T08:00:53.828Z,97.69
2019-02-03T08:01:53.898Z,97.58
2019-02-03T08:02:53.824Z,97.47
2019-02-03T08:03:53.901Z,97.45
2019-02-03T08:04:53.821Z,97.36
2019-02-03T08:05:53.838Z,97.34
2019-02-03T08:06:53.837Z,97.34
2019-02-03T08:07:53.914Z,97.34
2019-02-03T08:08:53.923Z,97.34
2019-02-03T08:09:53.859Z,97.28
2019-02-03T08:10:53.911Z,97.34
2019-02-03T08:11:53.913Z,97.34
2019-02-03T08:12:53.847Z,97.34
2019-02-03T08:13:53.810Z,97.31
2019-02-03T08:14:53.854Z,97.28
2019-02-03T08:15:53.850Z,97.10
2019-02-03T08:16:53.938Z,96.80
2019-02-03T08:17:53.938Z,96.28
2019-02-03T08:18:53.863Z,95.96
2019-02-03T08:19:54.002Z,95.66
2019-02-03T08:20:53.849Z,95.20
2019-02-03T08:21:53.926Z,94.96
2019-02-03T08:22:53.850Z,94.83
2019-02-03T08:23:53.924Z,94.69
2019-02-03T08:24:53.852Z,94.56
2019-02-03T08:25:53.851Z,94.48
2019-02-03T08:26:53.932Z,94.29
2019-02-03T08:27:53.853Z,94.04
2019-02-03T08:28:53.925Z,93.94
2019-02-03T08:29:53.852Z,93.89
2019-02-03T08:30:53.954Z,93.70
2019-02-03T08:31:53.875Z,93.56
2019-02-03T08:32:53.822Z,93.45
2019-02-03T08:33:53.928Z,93.21
2019-02-03T08:34:53.860Z,92.97
2019-02-03T08:35:53.934Z,92.91
2019-02-03T08:36:53.936Z,92.91
2019-02-03T08:37:53.862Z,92.97
2019-02-03T08:38:53.863Z,92.95
2019-02-03T08:39:53.873Z,92.95
2019-02-03T08:40:54.027Z,92.89
2019-02-03T08:41:53.934Z,92.46
2019-02-03T08:42:55.801Z,92.19
2019-02-03T08:43:53.865Z,92.30
2019-02-03T08:44:53.946Z,92.27
2019-02-03T08:45:53.867Z,92.19
2019-02-03T08:46:53.830Z,92.27
2019-02-03T08:47:53.905Z,92.14
2019-02-03T08:48:53.792Z,92.08
2019-02-03T08:49:53.863Z,92.03
2019-02-03T08:50:53.905Z,91.76
2019-02-03T08:51:53.869Z,91.79
2019-02-03T08:52:53.859Z,91.92
2019-02-03T08:53:53.890Z,92.08
2019-02-03T08:54:58.400Z,92.24
2019-02-03T08:55:53.800Z,92.30
2019-02-03T08:56:53.910Z,92.35
2019-02-03T08:57:53.801Z,92.30
2019-02-03T08:58:53.833Z,92.14
2019-02-03T08:59:53.850Z,92.11
2019-02-03T09:00:53.861Z,91.97
2019-02-03T09:01:53.824Z,91.92
2019-02-03T09:02:53.803Z,91.79
2019-02-03T09:03:53.900Z,91.73
2019-02-03T09:04:53.815Z,91.82
2019-02-03T09:05:53.804Z,91.97
2019-02-03T09:06:53.897Z,92.11
2019-02-03T09:07:53.952Z,92.16
2019-02-03T09:08:54.010Z,92.05
2019-02-03T09:09:53.954Z,92.16
2019-02-03T09:10:54.070Z,92.05
2019-02-03T09:11:53.958Z,91.97
2019-02-03T09:12:53.891Z,92.05
2019-02-03T09:13:55.754Z,92.19
2019-02-03T09:14:53.889Z,92.40
2019-02-03T09:15:53.894Z,92.62
2019-02-03T09:16:53.948Z,92.86
2019-02-03T09:17:53.882Z,93.05
2019-02-03T09:18:53.915Z,93.24
2019-02-03T09:19:53.881Z,93.40
2019-02-03T09:20:55.920Z,93.56
2019-02-03T09:21:53.953Z,93.70
2019-02-03T09:22:53.885Z,93.89
2019-02-03T09:23:53.878Z,94.02
2019-02-03T09:24:53.954Z,94.12
2019-02-03T09:25:53.868Z,94.23
2019-02-03T09:26:53.970Z,94.29
2019-02-03T09:27:53.966Z,94.42
2019-02-03T09:28:53.894Z,94.50
2019-02-03T09:29:53.904Z,94.56
2019-02-03T09:30:53.984Z,94.61
2019-02-03T09:31:53.900Z,94.69
2019-02-03T09:32:53.973Z,94.83
2019-02-03T09:33:53.902Z,94.93
2019-02-03T09:34:53.902Z,95.07
2019-02-03T09:35:53.979Z,95.18
2019-02-03T09:36:53.918Z,95.15
2019-02-03T09:37:53.981Z,95.20
2019-02-03T09:38:54.097Z,95.26
2019-02-03T09:39:53.904Z,95.18
2019-02-03T09:41:00.165Z,95.04
2019-02-03T09:41:53.907Z,95.01
2019-02-03T09:42:53.920Z,95.07
2019-02-03T09:43:53.907Z,95.01
2019-02-03T09:44:53.903Z,94.99
2019-02-03T09:45:53.909Z,95.01
2019-02-03T09:46:53.908Z,94.99
2019-02-03T09:47:53.981Z,95.01
2019-02-03T09:48:53.923Z,95.07
2019-02-03T09:49:53.941Z,95.15
2019-02-03T09:50:53.992Z,95.20
2019-02-03T09:51:53.914Z,95.07
2019-02-03T09:52:53.927Z,94.77
2019-02-03T09:53:53.912Z,94.42
2019-02-03T09:54:54.010Z,94.37
2019-02-03T09:55:53.997Z,94.40
2019-02-03T09:56:53.988Z,94.29
2019-02-03T09:57:53.918Z,94.21
2019-02-03T09:58:53.994Z,94.10
2019-02-03T09:59:53.919Z,93.89
2019-02-03T10:00:53.956Z,93.56
2019-02-03T10:01:53.916Z,93.37
2019-02-03T10:02:53.922Z,93.32
2019-02-03T10:03:53.923Z,93.24
2019-02-03T10:04:53.993Z,93.26
2019-02-03T10:05:53.922Z,93.10
2019-02-03T10:06:53.935Z,92.81
2019-02-03T10:07:53.920Z,92.70
2019-02-03T10:08:54.004Z,92.76
2019-02-03T10:09:53.922Z,92.81
2019-02-03T10:10:53.993Z,92.68
2019-02-03T10:11:53.930Z,92.43
2019-02-03T10:12:53.984Z,92.27
2019-02-03T10:13:53.928Z,91.71
2019-02-03T10:14:54.006Z,91.20
2019-02-03T10:15:53.932Z,91.07
2019-02-03T10:16:53.857Z,90.98
2019-02-03T10:17:53.916Z,90.55
2019-02-03T10:18:53.879Z,90.18
2019-02-03T10:19:53.906Z,90.09
2019-02-03T10:20:53.855Z,89.78
2019-02-03T10:21:53.866Z,89.67
2019-02-03T10:22:53.916Z,89.86
2019-02-03T10:23:53.828Z,89.67
2019-02-03T10:24:53.957Z,89.22
2019-02-03T10:25:55.433Z,88.76
2019-02-03T10:26:53.939Z,88.68
2019-02-03T10:27:54.047Z,88.81
2019-02-03T10:28:54.007Z,88.60
2019-02-03T10:29:53.963Z,88.15
2019-02-03T10:30:54.016Z,88.07
2019-02-03T10:31:54.024Z,87.82
2019-02-03T10:32:54.008Z,87.77
2019-02-03T10:33:53.954Z,88.01
2019-02-03T10:34:54.019Z,88.07
2019-02-03T10:35:54.021Z,88.39
2019-02-03T10:36:53.922Z,89.00
2019-02-03T10:37:53.997Z,89.19
2019-02-03T10:38:54.104Z,89.32
2019-02-03T10:39:53.997Z,89.14
2019-02-03T10:40:53.885Z,88.84
2019-02-03T10:41:53.918Z,88.68
2019-02-03T10:42:53.882Z,88.46
2019-02-03T10:43:56.282Z,88.36
2019-02-03T10:44:53.934Z,87.90
2019-02-03T10:45:53.945Z,87.90
2019-02-03T10:46:53.951Z,88.01
2019-02-03T10:47:54.080Z,88.20
2019-02-03T10:48:53.954Z,88.46
2019-02-03T10:49:53.914Z,88.62
2019-02-03T10:50:53.957Z,88.71
2019-02-03T10:51:54.022Z,88.20
2019-02-03T10:52:54.038Z,88.20
2019-02-03T10:53:53.958Z,87.98
2019-02-03T10:54:55.968Z,87.88
2019-02-03T10:55:53.957Z,87.45
2019-02-03T10:56:53.963Z,87.40
2019-02-03T10:57:53.957Z,87.26
2019-02-03T10:58:54.025Z,87.02
2019-02-03T10:59:53.973Z,87.21
2019-02-03T11:00:55.174Z,87.10
2019-02-03T11:01:54.038Z,87.05
2019-02-03T11:02:54.034Z,87.05
2019-02-03T11:03:53.966Z,87.18
2019-02-03T11:04:54.038Z,87.18
2019-02-03T11:05:53.963Z,87.18
2019-02-03T11:06:54.034Z,87.02
2019-02-03T11:07:54.034Z,87.26
2019-02-03T11:08:53.972Z,87.51
2019-02-03T11:09:54.036Z,87.59
2019-02-03T11:10:53.979Z,87.96
2019-02-03T11:11:53.968Z,88.44
2019-02-03T11:12:53.976Z,88.79
2019-02-03T11:13:53.970Z,89.03
2019-02-03T11:14:54.046Z,89.22
2019-02-03T11:15:53.987Z,89.22
2019-02-03T11:16:54.042Z,89.16
2019-02-03T11:17:54.041Z,89.40
2019-02-03T11:18:53.977Z,89.35
2019-02-03T11:19:54.052Z,89.27
2019-02-03T11:20:53.970Z,89.27
2019-02-03T11:21:54.046Z,89.56
2019-02-03T11:22:54.054Z,89.72
2019-02-03T11:23:53.974Z,89.94
2019-02-03T11:24:54.058Z,89.94
2019-02-03T11:25:53.981Z,90.09
2019-02-03T11:26:54.044Z,90.39
2019-02-03T11:27:53.971Z,90.47
2019-02-03T11:28:54.007Z,90.55
2019-02-03T11:29:54.045Z,90.36
2019-02-03T11:30:53.988Z,90.07
2019-02-03T11:31:54.519Z,90.15
2019-02-03T11:33:04.715Z,90.26
2019-02-03T11:33:54.042Z,90.39
2019-02-03T11:34:53.972Z,90.45
2019-02-03T11:35:54.013Z,90.50
2019-02-03T11:36:54.043Z,89.94
2019-02-03T11:37:53.987Z,89.70
2019-02-03T11:38:54.061Z,89.80
2019-02-03T11:39:53.990Z,89.97
2019-02-03T11:40:53.996Z,90.05
2019-02-03T11:41:54.063Z,90.07
2019-02-03T11:42:54.006Z,89.54
2019-02-03T11:43:53.992Z,89.35
2019-02-03T11:44:54.065Z,89.06
2019-02-03T11:45:53.994Z,88.89
2019-02-03T11:46:53.994Z,88.84
2019-02-03T11:47:54.065Z,88.84
2019-02-03T11:48:53.997Z,88.71
2019-02-03T11:49:54.067Z,88.84
2019-02-03T11:50:54.025Z,88.65
2019-02-03T11:51:53.999Z,88.73
2019-02-03T11:52:54.064Z,88.97
2019-02-03T11:53:53.997Z,89.27
2019-02-03T11:54:54.071Z,89.59
2019-02-03T11:55:54.078Z,89.70
2019-02-03T11:56:54.011Z,89.80
2019-02-03T11:57:53.958Z,89.94
2019-02-03T11:58:54.093Z,89.97
2019-02-03T11:59:54.074Z,89.83
2019-02-03T12:00:54.074Z,89.56
2019-02-03T12:01:53.999Z,89.67
2019-02-03T12:02:53.999Z,89.67
2019-02-03T12:03:54.092Z,89.99
2019-02-03T12:04:54.003Z,90.39
2019-02-03T12:05:54.003Z,90.77
2019-02-03T12:06:54.011Z,91.11
2019-02-03T12:07:54.060Z,91.36
2019-02-03T12:08:54.071Z,91.52
2019-02-03T12:09:54.068Z,91.60
2019-02-03T12:10:54.019Z,91.49
2019-02-03T12:12:01.155Z,91.44
2019-02-03T12:12:53.984Z,91.49
2019-02-03T12:13:54.001Z,91.52
2019-02-03T12:14:54.000Z,91.49
2019-02-03T12:15:54.074Z,91.55
2019-02-03T12:16:54.091Z,91.49
2019-02-03T12:17:54.062Z,91.41
2019-02-03T12:18:54.024Z,91.55
2019-02-03T12:19:54.022Z,91.28
2019-02-03T12:20:54.065Z,90.96
2019-02-03T12:21:54.074Z,90.77
2019-02-03T12:22:53.986Z,90.80
2019-02-03T12:23:54.076Z,90.93
2019-02-03T12:24:54.064Z,91.07
2019-02-03T12:25:53.979Z,90.74
2019-02-03T12:26:54.081Z,90.31
2019-02-03T12:27:54.014Z,90.34
2019-02-03T12:28:54.022Z,90.47
2019-02-03T12:29:54.095Z,90.63
2019-02-03T12:30:54.030Z,90.58
2019-02-03T12:31:54.088Z,90.09
2019-02-03T12:32:54.051Z,89.80
2019-02-03T12:33:54.000Z,89.27
2019-02-03T12:34:54.094Z,88.79
2019-02-03T12:35:54.054Z,88.39
2019-02-03T12:36:54.089Z,88.68
2019-02-03T12:37:54.088Z,88.71
2019-02-03T12:38:54.054Z,88.97
2019-02-03T12:39:54.110Z,89.22
2019-02-03T12:40:54.091Z,89.03
2019-02-03T12:41:54.001Z,88.76
2019-02-03T12:42:54.004Z,88.46
2019-02-03T12:43:53.990Z,88.25
2019-02-03T12:44:54.092Z,87.85
2019-02-03T12:45:54.018Z,87.32
2019-02-03T12:46:54.007Z,86.63
2019-02-03T12:47:54.041Z,86.63
2019-02-03T12:48:54.114Z,86.01
2019-02-03T12:49:54.087Z,85.96
2019-02-03T12:50:54.071Z,86.17
2019-02-03T12:51:54.118Z,85.93
2019-02-03T12:52:54.041Z,85.91